Main page
METAR-TAF:

METAR-TAF

Airports :

Tangier Ibn Battouta Airport

Tangier, Morocco

latitude: 35-44N, longitude: 005-54W, elevation: 19 m

Current weather observation

The report was made 31 minutes ago, at 01:30 UTC
Wind 16 kt from the East/Northeast
Temperature 16°C
Humidity 63%
Pressure 1023 hPa
Visibility 10 km or more
no clouds below 1500 m and no cumulonimbus

METAR: GMTT 030130Z 07016KT CAVOK 16/09 Q1023 NOSIG

Time: 03:01 (02:01 UTC)

Forecast

The report was made 9 hours and 1 minutes ago, at 17:00 UTC
Forecast valid from 02 at 18 UTC to 03 at 24 UTC
Wind 10 kt from the East
Visibility: 6000 m
Few clouds at a height of 2000 ft
Becoming
from 03 at 06 UTC to 03 at 10 UTC
Wind 20 kt from the East with gusts up to 30 kt

TAF: GMTT 021700Z 0218/0324 08010KT 6000 FEW020 BECMG 0306/0310 08020G30KT

Weather observations and forecasts of more than 4000 airports (METAR and TAF reports).

The available stations are represented by yellow and red dots on the map.

Hover mouse over dot to see the name of the station.

Then click to see weather observations and forecasts.

To change the map : click on the green buttons with a black cross to zoom in, on the green button with a dash to zoom out, or on the green arrows for adjacent maps.


METAR-TAF: